createdAt,value
2023-03-08T00:01:24.683Z,5.88
2023-03-08T00:03:54.906Z,5.89
2023-03-08T00:06:23.512Z,5.95
2023-03-08T00:08:56.395Z,5.93
2023-03-08T00:11:24.752Z,6.00
2023-03-08T00:13:53.244Z,6.00
2023-03-08T00:16:21.659Z,6.07
2023-03-08T00:18:50.101Z,5.98
2023-03-08T00:21:20.098Z,5.99
2023-03-08T00:23:48.854Z,5.92
2023-03-08T00:26:18.582Z,5.89
2023-03-08T00:28:48.082Z,5.78
2023-03-08T00:31:16.485Z,5.72
2023-03-08T00:33:44.805Z,5.68
2023-03-08T00:36:16.690Z,5.64
2023-03-08T00:38:45.569Z,5.56
2023-03-08T00:41:14.172Z,5.58
2023-03-08T00:43:44.135Z,5.62
2023-03-08T00:46:13.039Z,5.64
2023-03-08T00:48:41.541Z,5.52
2023-03-08T00:51:13.605Z,5.45
2023-03-08T00:53:42.051Z,5.37
2023-03-08T00:56:10.406Z,5.42
2023-03-08T00:58:39.905Z,5.46
2023-03-08T01:01:10.781Z,5.45
2023-03-08T01:03:39.107Z,5.42
2023-03-08T01:06:09.548Z,5.44
2023-03-08T01:08:38.488Z,5.37
2023-03-08T01:11:07.325Z,5.42
2023-03-08T01:13:37.117Z,5.41
2023-03-08T01:16:05.558Z,5.47
2023-03-08T01:18:35.292Z,5.38
2023-03-08T01:21:06.220Z,5.36
2023-03-08T01:23:34.636Z,5.18
2023-03-08T01:26:04.597Z,5.19
2023-03-08T01:28:33.372Z,5.20
2023-03-08T01:31:05.723Z,5.27
2023-03-08T01:33:36.075Z,5.34
2023-03-08T01:36:05.696Z,5.37
2023-03-08T01:38:34.110Z,5.39
2023-03-08T01:41:04.126Z,5.36
2023-03-08T01:43:34.469Z,5.19
2023-03-08T01:46:12.159Z,5.11
2023-03-08T01:48:46.068Z,5.01
2023-03-08T01:51:17.613Z,4.93
2023-03-08T01:53:46.192Z,4.90
2023-03-08T01:56:17.000Z,4.83
2023-03-08T01:58:49.994Z,4.82
2023-03-08T02:01:20.093Z,4.77
2023-03-08T02:03:50.277Z,4.77
2023-03-08T02:06:20.609Z,4.79
2023-03-08T02:08:49.169Z,4.77
2023-03-08T02:11:20.253Z,4.81
2023-03-08T02:13:49.581Z,4.79
2023-03-08T02:16:19.341Z,4.80
2023-03-08T02:18:53.457Z,4.76
2023-03-08T02:21:21.750Z,4.77
2023-03-08T02:23:51.599Z,4.87
2023-03-08T02:26:20.417Z,4.90
2023-03-08T02:28:49.377Z,4.97
2023-03-08T02:31:18.366Z,4.96
2023-03-08T02:33:46.774Z,4.92
2023-03-08T02:36:15.104Z,4.96
2023-03-08T02:38:43.400Z,5.04
2023-03-08T02:41:13.164Z,5.04
2023-03-08T02:43:41.578Z,5.01
2023-03-08T02:46:12.804Z,4.82
2023-03-08T02:48:41.130Z,4.74
2023-03-08T02:51:09.437Z,4.64
2023-03-08T02:53:37.748Z,4.52
2023-03-08T02:56:06.649Z,4.40
2023-03-08T02:58:36.447Z,4.40
2023-03-08T03:01:04.788Z,4.54
2023-03-08T03:03:33.183Z,4.88
2023-03-08T03:06:01.525Z,5.11
2023-03-08T03:08:31.603Z,5.23
2023-03-08T03:10:59.930Z,5.21
2023-03-08T03:13:28.289Z,4.94
2023-03-08T03:15:58.294Z,4.78
2023-03-08T03:18:26.641Z,4.68
2023-03-08T03:20:54.951Z,4.64
2023-03-08T03:23:23.262Z,4.56
2023-03-08T03:25:51.547Z,4.48
2023-03-08T03:28:19.868Z,4.52
2023-03-08T03:30:48.213Z,4.46
2023-03-08T03:33:17.983Z,4.37
2023-03-08T03:35:46.295Z,4.21
2023-03-08T03:38:14.669Z,4.15
2023-03-08T03:40:42.939Z,4.06
2023-03-08T03:43:11.394Z,4.06
2023-03-08T03:45:39.696Z,4.14
2023-03-08T03:48:08.149Z,4.43
2023-03-08T03:50:37.860Z,4.73
2023-03-08T03:53:06.192Z,4.92
2023-03-08T03:55:34.480Z,5.00
2023-03-08T03:58:02.788Z,5.19
2023-03-08T04:00:31.437Z,5.06
2023-03-08T04:02:59.727Z,4.89
2023-03-08T04:05:28.097Z,4.81
2023-03-08T04:07:58.012Z,4.91
2023-03-08T04:10:26.626Z,5.23
2023-03-08T04:12:55.150Z,5.56
2023-03-08T04:15:23.418Z,5.71
2023-03-08T04:17:52.932Z,5.93
2023-03-08T04:20:21.419Z,6.10
2023-03-08T04:22:49.773Z,6.27
2023-03-08T04:25:19.592Z,6.36
2023-03-08T04:27:47.971Z,6.42
2023-03-08T04:30:16.498Z,6.44
2023-03-08T04:32:44.792Z,6.39
2023-03-08T04:35:13.145Z,6.28
2023-03-08T04:37:41.399Z,6.26
2023-03-08T04:40:11.163Z,6.28
2023-03-08T04:42:41.204Z,6.29
2023-03-08T04:45:10.585Z,6.22
2023-03-08T04:47:38.864Z,6.24
2023-03-08T04:50:08.287Z,6.38
2023-03-08T04:52:36.629Z,6.47
2023-03-08T04:55:05.307Z,6.43
2023-03-08T04:57:35.246Z,6.42
2023-03-08T05:00:06.021Z,6.38
2023-03-08T05:02:34.526Z,6.35
2023-03-08T05:05:04.482Z,6.39
2023-03-08T05:07:32.926Z,6.46
2023-03-08T05:10:01.234Z,6.86
2023-03-08T05:12:29.551Z,7.30
2023-03-08T05:14:57.925Z,7.06
2023-03-08T05:17:27.666Z,6.93
2023-03-08T05:19:56.004Z,6.75
2023-03-08T05:22:24.333Z,6.80
2023-03-08T05:24:52.838Z,6.91
2023-03-08T05:27:21.142Z,6.84
2023-03-08T05:29:49.458Z,6.89
2023-03-08T05:32:17.759Z,7.04
2023-03-08T05:34:47.577Z,7.32
2023-03-08T05:37:15.873Z,7.51
2023-03-08T05:39:44.199Z,7.88
2023-03-08T05:42:13.306Z,8.38
2023-03-08T05:44:41.591Z,9.07
2023-03-08T05:47:09.933Z,9.80
2023-03-08T05:49:38.233Z,10.45
2023-03-08T05:52:08.317Z,11.20
2023-03-08T05:54:36.648Z,11.60
2023-03-08T05:57:05.261Z,11.88
2023-03-08T05:59:33.752Z,11.62
2023-03-08T06:02:02.283Z,12.51
2023-03-08T06:04:30.617Z,13.00
2023-03-08T06:06:58.869Z,13.10
2023-03-08T06:09:28.644Z,12.80
2023-03-08T06:11:57.052Z,12.93
2023-03-08T06:14:25.479Z,13.21
2023-03-08T06:16:53.867Z,13.33
2023-03-08T06:19:22.310Z,13.54
2023-03-08T06:21:50.601Z,13.72
2023-03-08T06:24:18.961Z,14.60
2023-03-08T06:26:48.666Z,15.01
2023-03-08T06:29:17.027Z,15.51
2023-03-08T06:31:45.331Z,15.80
2023-03-08T06:34:14.069Z,15.48
2023-03-08T06:36:42.335Z,15.72
2023-03-08T06:39:11.258Z,15.70
2023-03-08T06:41:39.560Z,15.50
2023-03-08T06:44:09.338Z,15.53
2023-03-08T06:46:37.731Z,14.87
2023-03-08T06:49:11.823Z,14.62
2023-03-08T06:51:40.241Z,14.11
2023-03-08T06:54:08.531Z,13.85
2023-03-08T06:56:36.872Z,13.35
2023-03-08T06:59:05.228Z,12.88
2023-03-08T07:01:34.938Z,12.84
2023-03-08T07:04:03.368Z,12.65
2023-03-08T07:06:31.683Z,12.32
2023-03-08T07:08:59.968Z,12.00
2023-03-08T07:11:29.678Z,11.75
2023-03-08T07:13:59.299Z,11.60
2023-03-08T07:16:27.926Z,11.38
2023-03-08T07:18:57.971Z,11.09
2023-03-08T07:21:26.406Z,11.03
2023-03-08T07:23:54.745Z,11.07
2023-03-08T07:26:23.087Z,11.23
2023-03-08T07:28:51.651Z,11.47
2023-03-08T07:31:36.363Z,11.67
2023-03-08T07:34:06.220Z,11.67
2023-03-08T07:36:37.047Z,11.79
2023-03-08T07:39:05.494Z,11.73
2023-03-08T07:41:34.844Z,11.95
2023-03-08T07:44:03.877Z,12.11
2023-03-08T07:46:35.163Z,12.22
2023-03-08T07:49:03.495Z,12.25
2023-03-08T07:51:33.259Z,12.32
2023-03-08T07:54:02.147Z,12.30
2023-03-08T07:56:31.030Z,12.43
2023-03-08T07:58:59.363Z,12.57
2023-03-08T08:01:27.695Z,12.72
2023-03-08T08:03:56.117Z,12.79
2023-03-08T08:06:24.401Z,12.87
2023-03-08T08:08:54.132Z,13.03
2023-03-08T08:11:22.624Z,13.21
2023-03-08T08:13:51.096Z,13.34
2023-03-08T08:16:19.427Z,13.53
2023-03-08T08:18:48.037Z,13.73
2023-03-08T08:21:17.346Z,13.84
2023-03-08T08:23:46.008Z,13.86
2023-03-08T08:26:17.588Z,13.87
2023-03-08T08:28:47.507Z,13.98
2023-03-08T08:31:17.713Z,14.10
2023-03-08T08:33:56.468Z,14.16
2023-03-08T08:36:25.290Z,14.28
2023-03-08T08:38:53.876Z,14.40
2023-03-08T08:41:24.422Z,14.42
2023-03-08T08:43:52.916Z,14.46
2023-03-08T08:46:21.350Z,14.50
2023-03-08T08:48:49.670Z,14.57
2023-03-08T08:51:18.399Z,14.72
2023-03-08T08:53:46.723Z,14.77
2023-03-08T08:56:26.045Z,14.84
2023-03-08T08:58:56.575Z,14.80
2023-03-08T09:01:26.654Z,14.87
2023-03-08T09:03:55.483Z,14.96
2023-03-08T09:06:25.169Z,15.02
2023-03-08T09:08:55.022Z,15.12
2023-03-08T09:11:24.352Z,15.14
2023-03-08T09:13:53.267Z,15.24
2023-03-08T09:16:35.527Z,15.24
2023-03-08T09:19:05.807Z,15.43
2023-03-08T09:21:34.969Z,15.23
2023-03-08T09:24:05.282Z,15.15
2023-03-08T09:26:34.996Z,15.04
2023-03-08T09:29:05.529Z,14.87
2023-03-08T09:31:38.378Z,14.84
2023-03-08T09:34:09.544Z,14.91
2023-03-08T09:36:39.755Z,14.90
2023-03-08T09:39:10.043Z,15.07
2023-03-08T09:41:54.338Z,15.16
2023-03-08T09:44:49.864Z,15.06
2023-03-08T09:47:29.813Z,14.94
2023-03-08T09:50:10.142Z,15.07
2023-03-08T09:52:41.789Z,15.15
2023-03-08T09:55:26.333Z,15.10
2023-03-08T09:57:57.561Z,15.11
2023-03-08T10:00:31.694Z,14.97
2023-03-08T10:03:23.876Z,14.84
2023-03-08T10:05:58.631Z,14.46
2023-03-08T10:08:31.964Z,14.49
2023-03-08T10:11:01.950Z,14.50
2023-03-08T10:13:36.219Z,14.60
2023-03-08T10:16:14.292Z,14.73
2023-03-08T10:18:48.423Z,14.82
2023-03-08T10:21:19.490Z,14.69
2023-03-08T10:23:49.816Z,14.67
2023-03-08T10:26:18.924Z,14.65
2023-03-08T10:28:48.208Z,14.61
2023-03-08T10:31:24.369Z,14.76
2023-03-08T10:34:01.885Z,14.98
2023-03-08T10:36:30.346Z,15.18
2023-03-08T10:39:07.596Z,15.36
2023-03-08T10:41:43.608Z,15.48
2023-03-08T10:44:17.356Z,15.49
2023-03-08T10:46:50.810Z,15.45
2023-03-08T10:49:26.813Z,15.58
2023-03-08T10:52:01.027Z,15.60
2023-03-08T10:54:30.334Z,15.93
2023-03-08T10:57:00.733Z,16.16
2023-03-08T10:59:33.531Z,16.27
2023-03-08T11:02:04.949Z,16.33
2023-03-08T11:04:34.714Z,16.42
2023-03-08T11:07:13.031Z,16.69
2023-03-08T11:09:41.522Z,16.87
2023-03-08T11:12:24.017Z,16.93
2023-03-08T11:14:55.750Z,17.07
2023-03-08T11:17:29.798Z,17.20
2023-03-08T11:20:11.438Z,17.24
2023-03-08T11:23:00.631Z,17.17
2023-03-08T11:25:37.751Z,16.98
2023-03-08T11:28:25.219Z,17.04
2023-03-08T11:31:10.494Z,17.14
2023-03-08T11:34:09.048Z,17.28
2023-03-08T11:36:47.849Z,17.26
2023-03-08T11:39:23.905Z,17.38
2023-03-08T11:41:59.533Z,17.33
2023-03-08T11:45:01.413Z,17.39
2023-03-08T11:48:09.346Z,17.61
2023-03-08T11:50:42.993Z,17.77
2023-03-08T11:53:19.663Z,17.77
2023-03-08T11:56:00.313Z,17.62
2023-03-08T11:58:34.858Z,17.76
2023-03-08T12:01:04.833Z,17.96
2023-03-08T12:03:38.562Z,17.82
2023-03-08T12:06:26.574Z,16.55
2023-03-08T12:09:02.760Z,16.13
2023-03-08T12:11:34.271Z,15.91
2023-03-08T12:14:07.675Z,15.86
2023-03-08T12:16:48.095Z,15.44
2023-03-08T12:19:26.357Z,15.70
2023-03-08T12:22:03.873Z,15.66
2023-03-08T12:24:46.308Z,15.80
2023-03-08T12:27:20.688Z,15.87
2023-03-08T12:29:54.533Z,15.99
2023-03-08T12:32:24.245Z,16.02
2023-03-08T12:35:04.343Z,15.95
2023-03-08T12:37:33.370Z,16.01
2023-03-08T12:40:08.085Z,15.18
2023-03-08T12:42:39.154Z,15.04
2023-03-08T12:45:10.178Z,14.81
2023-03-08T12:47:38.618Z,14.92
2023-03-08T12:50:18.679Z,14.80
2023-03-08T12:52:47.144Z,14.82
2023-03-08T12:55:23.427Z,14.76
2023-03-08T12:57:54.906Z,14.66
2023-03-08T13:00:29.832Z,14.53
2023-03-08T13:03:06.342Z,14.56
2023-03-08T13:05:37.276Z,14.60
2023-03-08T13:08:25.493Z,14.59
2023-03-08T13:11:07.064Z,14.84
2023-03-08T13:13:49.633Z,14.79
2023-03-08T13:16:34.215Z,14.70
2023-03-08T13:19:09.164Z,14.87
2023-03-08T13:21:42.931Z,14.91
2023-03-08T13:24:17.612Z,15.06
2023-03-08T13:26:59.267Z,14.65
2023-03-08T13:29:31.808Z,14.52
2023-03-08T13:32:06.255Z,14.65
2023-03-08T13:34:36.524Z,14.66
2023-03-08T13:37:05.230Z,14.65
2023-03-08T13:39:33.963Z,14.60
2023-03-08T13:42:12.977Z,14.74
2023-03-08T13:44:41.346Z,14.55
2023-03-08T13:47:22.654Z,14.54
2023-03-08T13:49:52.391Z,14.42
2023-03-08T13:52:23.716Z,14.21
2023-03-08T13:54:55.168Z,14.25
2023-03-08T13:57:27.852Z,14.39
2023-03-08T13:59:58.120Z,14.39
2023-03-08T14:02:28.230Z,14.60
2023-03-08T14:04:57.632Z,14.49
2023-03-08T14:07:28.110Z,14.49
2023-03-08T14:09:56.854Z,14.45
2023-03-08T14:12:30.859Z,14.52
2023-03-08T14:15:01.644Z,14.31
2023-03-08T14:17:32.613Z,14.23
2023-03-08T14:20:05.228Z,14.40
2023-03-08T14:22:40.025Z,14.54
2023-03-08T14:25:23.374Z,14.47
2023-03-08T14:27:53.379Z,14.29
2023-03-08T14:30:24.693Z,14.08
2023-03-08T14:33:03.178Z,14.12
2023-03-08T14:35:34.844Z,14.20
2023-03-08T14:38:04.062Z,14.08
2023-03-08T14:40:35.598Z,13.80
2023-03-08T14:43:07.878Z,13.62
2023-03-08T14:45:40.188Z,13.44
2023-03-08T14:48:25.190Z,13.19
2023-03-08T14:50:56.143Z,12.75
2023-03-08T14:53:29.300Z,12.67
2023-03-08T14:55:59.013Z,12.47
2023-03-08T14:58:31.117Z,12.16
2023-03-08T15:01:02.227Z,12.11
2023-03-08T15:03:32.538Z,12.04
2023-03-08T15:06:06.357Z,11.76
2023-03-08T15:08:34.764Z,11.69
2023-03-08T15:11:03.200Z,11.51
2023-03-08T15:13:32.852Z,11.71
2023-03-08T15:16:01.218Z,11.61
2023-03-08T15:18:29.585Z,11.51
2023-03-08T15:20:58.619Z,11.58
2023-03-08T15:23:29.492Z,11.51
2023-03-08T15:25:59.412Z,11.53
2023-03-08T15:28:27.897Z,11.49
2023-03-08T15:30:57.770Z,11.40
2023-03-08T15:33:26.327Z,11.23
2023-03-08T15:35:54.778Z,11.09
2023-03-08T15:38:24.839Z,11.03
2023-03-08T15:40:56.241Z,10.89
2023-03-08T15:43:27.086Z,10.81
2023-03-08T15:45:55.347Z,10.74
2023-03-08T15:48:25.089Z,10.55
2023-03-08T15:50:53.367Z,10.39
2023-03-08T15:53:34.524Z,10.18
2023-03-08T15:56:03.810Z,10.04
2023-03-08T15:58:32.168Z,9.88
2023-03-08T16:01:00.462Z,9.88
2023-03-08T16:03:31.451Z,9.88
2023-03-08T16:06:00.183Z,9.85
2023-03-08T16:08:29.090Z,9.68
2023-03-08T16:11:00.340Z,9.60
2023-03-08T16:13:28.619Z,9.45
2023-03-08T16:16:00.036Z,9.45
2023-03-08T16:18:30.712Z,9.42
2023-03-08T16:20:59.626Z,9.44
2023-03-08T16:23:28.477Z,9.52
2023-03-08T16:26:14.232Z,9.60
2023-03-08T16:28:45.074Z,9.53
2023-03-08T16:31:14.111Z,9.53
2023-03-08T16:33:43.900Z,9.55
2023-03-08T16:36:12.819Z,9.54
2023-03-08T16:38:41.532Z,9.47
2023-03-08T16:41:14.306Z,9.37
2023-03-08T16:43:48.039Z,9.39
2023-03-08T16:46:18.908Z,9.43
2023-03-08T16:48:50.079Z,9.63
2023-03-08T16:51:20.517Z,9.58
2023-03-08T16:53:49.460Z,9.54
2023-03-08T16:56:22.699Z,9.46
2023-03-08T16:58:51.227Z,9.59
2023-03-08T17:01:20.931Z,9.79
2023-03-08T17:03:51.070Z,10.18
2023-03-08T17:06:23.392Z,10.39
2023-03-08T17:08:52.148Z,10.46
2023-03-08T17:11:22.921Z,10.50
2023-03-08T17:13:52.888Z,10.51
2023-03-08T17:16:22.831Z,10.40
2023-03-08T17:18:53.427Z,10.49
2023-03-08T17:21:24.511Z,10.68
2023-03-08T17:23:56.490Z,10.92
2023-03-08T17:26:24.996Z,11.07
2023-03-08T17:28:54.425Z,11.20
2023-03-08T17:31:24.753Z,11.31
2023-03-08T17:33:54.742Z,11.27
2023-03-08T17:36:23.313Z,11.28
2023-03-08T17:38:54.311Z,11.25
2023-03-08T17:41:23.964Z,11.25
2023-03-08T17:43:55.290Z,11.42
2023-03-08T17:46:28.548Z,11.49
2023-03-08T17:48:58.513Z,11.40
2023-03-08T17:51:30.254Z,11.33
2023-03-08T17:54:01.188Z,11.30
2023-03-08T17:56:32.030Z,11.24
2023-03-08T17:59:02.897Z,11.18
2023-03-08T18:01:32.479Z,11.16
2023-03-08T18:04:02.466Z,11.11
2023-03-08T18:06:33.368Z,11.09
2023-03-08T18:09:03.720Z,11.15
2023-03-08T18:11:37.482Z,11.09
2023-03-08T18:14:06.104Z,11.01
2023-03-08T18:16:35.380Z,10.84
2023-03-08T18:19:06.592Z,10.73
2023-03-08T18:21:36.413Z,10.62
2023-03-08T18:24:05.418Z,10.38
2023-03-08T18:26:33.908Z,10.35
2023-03-08T18:29:02.205Z,10.43
2023-03-08T18:31:32.372Z,10.41
2023-03-08T18:34:00.764Z,10.39
2023-03-08T18:36:30.521Z,10.43
2023-03-08T18:38:58.842Z,10.54
2023-03-08T18:41:29.651Z,10.52
2023-03-08T18:43:59.908Z,10.49
2023-03-08T18:46:30.134Z,10.29
2023-03-08T18:49:01.410Z,10.22
2023-03-08T18:51:31.601Z,10.07
2023-03-08T18:54:00.401Z,9.98
2023-03-08T18:56:29.702Z,9.96
2023-03-08T18:59:01.196Z,10.01
2023-03-08T19:01:30.572Z,9.90
2023-03-08T19:04:00.818Z,9.71
2023-03-08T19:06:30.572Z,9.65
2023-03-08T19:08:58.877Z,9.48
2023-03-08T19:11:29.212Z,9.37
2023-03-08T19:13:57.625Z,9.21
2023-03-08T19:16:27.937Z,9.24
2023-03-08T19:18:58.358Z,9.21
2023-03-08T19:21:28.480Z,9.24
2023-03-08T19:23:59.026Z,9.56
2023-03-08T19:26:37.032Z,9.71
2023-03-08T19:29:08.697Z,9.73
2023-03-08T19:31:39.025Z,9.80
2023-03-08T19:34:07.685Z,9.82
2023-03-08T19:36:36.732Z,9.78
2023-03-08T19:39:10.334Z,9.53
2023-03-08T19:41:38.718Z,9.27
2023-03-08T19:44:07.951Z,9.10
2023-03-08T19:46:37.073Z,9.01
2023-03-08T19:49:08.677Z,9.07
2023-03-08T19:51:37.728Z,9.01
2023-03-08T19:54:08.178Z,9.02
2023-03-08T19:56:37.238Z,8.86
2023-03-08T19:59:05.697Z,8.84
2023-03-08T20:01:33.974Z,8.74
2023-03-08T20:04:02.305Z,8.76
2023-03-08T20:06:32.772Z,8.67
2023-03-08T20:09:02.536Z,8.52
2023-03-08T20:11:32.831Z,8.39
2023-03-08T20:14:01.431Z,8.26
2023-03-08T20:16:30.510Z,8.26
2023-03-08T20:18:58.967Z,8.28
2023-03-08T20:21:29.877Z,8.39
2023-03-08T20:23:59.706Z,8.42
2023-03-08T20:26:30.047Z,8.41
2023-03-08T20:29:21.508Z,8.53
2023-03-08T20:31:57.632Z,8.60
2023-03-08T20:34:27.249Z,8.64
2023-03-08T20:36:55.571Z,8.68
2023-03-08T20:39:23.878Z,8.69
2023-03-08T20:41:53.873Z,8.64
2023-03-08T20:44:23.557Z,8.67
2023-03-08T20:46:51.958Z,8.71
2023-03-08T20:49:20.292Z,8.88
2023-03-08T20:51:49.320Z,8.89
2023-03-08T20:54:17.977Z,8.91
2023-03-08T20:56:46.330Z,8.95
2023-03-08T20:59:15.837Z,9.04
2023-03-08T21:01:45.846Z,9.03
2023-03-08T21:04:14.115Z,9.10
2023-03-08T21:06:42.442Z,9.15
2023-03-08T21:09:10.735Z,9.11
2023-03-08T21:11:39.163Z,9.05
2023-03-08T21:14:08.221Z,8.93
2023-03-08T21:16:36.748Z,8.92
2023-03-08T21:19:07.236Z,8.97
2023-03-08T21:21:37.716Z,9.03
2023-03-08T21:24:08.130Z,9.12
2023-03-08T21:26:36.723Z,9.15
2023-03-08T21:29:06.685Z,9.14
2023-03-08T21:31:37.079Z,9.21
2023-03-08T21:34:08.138Z,9.25
2023-03-08T21:36:38.557Z,9.04
2023-03-08T21:39:08.219Z,8.98
2023-03-08T21:41:39.241Z,8.89
2023-03-08T21:44:09.545Z,8.97
2023-03-08T21:46:38.429Z,9.17
2023-03-08T21:49:10.706Z,9.37
2023-03-08T21:51:41.826Z,9.43
2023-03-08T21:54:10.304Z,9.54
2023-03-08T21:56:38.968Z,9.50
2023-03-08T21:59:07.830Z,9.40
2023-03-08T22:01:37.192Z,9.38
2023-03-08T22:04:06.432Z,9.39
2023-03-08T22:06:36.215Z,9.35
2023-03-08T22:09:04.593Z,9.25
2023-03-08T22:11:33.561Z,9.11
2023-03-08T22:14:02.352Z,9.08
2023-03-08T22:16:33.847Z,9.05
2023-03-08T22:19:03.481Z,9.02
2023-03-08T22:21:32.147Z,9.03
2023-03-08T22:24:03.411Z,9.20
2023-03-08T22:26:32.395Z,9.43
2023-03-08T22:29:01.217Z,9.48
2023-03-08T22:31:31.289Z,9.65
2023-03-08T22:34:00.508Z,9.83
2023-03-08T22:36:28.965Z,9.84
2023-03-08T22:38:57.500Z,9.87
2023-03-08T22:41:28.993Z,9.90
2023-03-08T22:43:57.439Z,9.92
2023-03-08T22:46:28.011Z,9.88
2023-03-08T22:48:58.286Z,9.73
2023-03-08T22:51:28.625Z,9.71
2023-03-08T22:53:59.162Z,9.71
2023-03-08T22:56:30.924Z,9.71
2023-03-08T22:58:59.779Z,9.78
2023-03-08T23:01:30.180Z,9.81
2023-03-08T23:03:59.906Z,9.74
2023-03-08T23:06:30.135Z,9.73
2023-03-08T23:08:59.880Z,9.78
2023-03-08T23:11:30.516Z,9.81
2023-03-08T23:13:58.912Z,9.82
2023-03-08T23:16:27.577Z,9.81
2023-03-08T23:18:56.370Z,9.87
2023-03-08T23:21:26.700Z,9.84
2023-03-08T23:23:55.178Z,9.77
2023-03-08T23:26:26.930Z,9.78
2023-03-08T23:28:57.981Z,9.74
2023-03-08T23:31:28.670Z,9.66
2023-03-08T23:33:58.360Z,9.63
2023-03-08T23:36:27.581Z,9.58
2023-03-08T23:38:56.472Z,9.62
2023-03-08T23:41:25.131Z,9.52
2023-03-08T23:43:57.925Z,9.33
2023-03-08T23:46:27.086Z,9.16
2023-03-08T23:48:57.475Z,8.92
2023-03-08T23:51:27.366Z,8.85
2023-03-08T23:53:57.726Z,8.74
2023-03-08T23:56:27.695Z,8.65
2023-03-08T23:58:58.781Z,8.61
